< < Back
Terminal Aerodrome Forecast


Current Version              Previous Versions:   1  2  3  4  5  6  7  8  9  

Terminal Aerodrome Forecast

409
FTUS42 KTAE 300701 AAB
TAFABY
TAF AMD
KABY 300701Z 3007/3106 16004KT 2SM RA BKN030
     FM301000 10003KT 5SM BR BKN012
     FM301400 15004KT P6SM BKN025
     FM301700 16005KT P6SM VCTS BKN040CB
     FM310000 12006KT P6SM BKN040=

Latest METAR

010
SAUS70 KWBC 310200 RRC
MTRABY
METAR KABY 310153Z 06007KT 10SM CLR 26/22 A3004 RMK AO2 SLP171
T02610217


USA.gov is the U.S. government's official web portal to all federal, state and local government web resources and services.